Main page
METAR-TAF:

METAR-TAF

Airports :

Skopje "Alexander the Great" Airport

Skopje, Macedonia

latitude: 41-58N, longitude: 021-39E, elevation: 238 m

Current weather observation

The report was made 15 minutes ago, at 19:30 UTC
Calm wind
Temperature 5°C
Humidity 87%
Pressure 1025 hPa
Visibility 10 km or more
no clouds below 1500 m and no cumulonimbus

METAR: LWSK 281930Z 00000KT CAVOK 05/03 Q1025 NOSIG

Time: 21:45 (19:45 UTC)

Forecast

The report was made 2 hours and 35 minutes ago, at 17:10 UTC
Forecast valid from 28 at 18 UTC to 29 at 18 UTC
Wind 2 kt from variable directions
Visibility 10 km or more
no clouds below 1500 m and no cumulonimbus
Probability 30% :
Temporary
from 29 at 02 UTC to 29 at 06 UTC
Visibility: 1500 m
Scattered clouds at a height of 1000 ft
mist

TAF: LWSK 281710Z 2818/2918 VRB02KT CAVOK PROB30 TEMPO 2902/2906 1500 BR SCT010

Weather observations and forecasts of more than 4000 airports (METAR and TAF reports).

The available stations are represented by yellow and red dots on the map.

Hover mouse over dot to see the name of the station.

Then click to see weather observations and forecasts.

To change the map : click on the green buttons with a black cross to zoom in, on the green button with a dash to zoom out, or on the green arrows for adjacent maps.


METAR-TAF: